sensor_id;sensor_type;location;lat;lon;timestamp;pressure;altitude;pressure_sealevel;temperature;humidity
11343;BME280;5726;42.160;24.746;2023-02-19T00:01:15;99697.47;;;14.07;41.86
11343;BME280;5726;42.160;24.746;2023-02-19T00:03:41;99688.50;;;14.20;41.66
11343;BME280;5726;42.160;24.746;2023-02-19T00:06:09;99684.69;;;14.43;41.10
11343;BME280;5726;42.160;24.746;2023-02-19T00:08:36;99684.31;;;14.36;41.08
11343;BME280;5726;42.160;24.746;2023-02-19T00:11:04;99691.47;;;14.10;41.91
11343;BME280;5726;42.160;24.746;2023-02-19T00:13:30;99686.81;;;13.89;42.47
11343;BME280;5726;42.160;24.746;2023-02-19T00:15:56;99684.72;;;13.86;42.58
11343;BME280;5726;42.160;24.746;2023-02-19T00:18:24;99674.84;;;13.60;43.20
11343;BME280;5726;42.160;24.746;2023-02-19T00:20:50;99676.06;;;13.54;43.43
11343;BME280;5726;42.160;24.746;2023-02-19T00:23:15;99674.66;;;13.43;43.77
11343;BME280;5726;42.160;24.746;2023-02-19T00:25:41;99679.09;;;13.39;43.86
11343;BME280;5726;42.160;24.746;2023-02-19T00:28:06;99681.81;;;13.61;43.38
11343;BME280;5726;42.160;24.746;2023-02-19T00:30:32;99673.84;;;12.94;44.89
11343;BME280;5726;42.160;24.746;2023-02-19T00:32:57;99682.50;;;13.18;44.16
11343;BME280;5726;42.160;24.746;2023-02-19T00:35:22;99663.84;;;13.21;44.24
11343;BME280;5726;42.160;24.746;2023-02-19T00:37:48;99667.25;;;13.13;44.29
11343;BME280;5726;42.160;24.746;2023-02-19T00:40:13;99651.97;;;13.22;44.36
11343;BME280;5726;42.160;24.746;2023-02-19T00:42:39;99653.28;;;13.11;44.49
11343;BME280;5726;42.160;24.746;2023-02-19T00:45:04;99651.81;;;13.05;44.62
11343;BME280;5726;42.160;24.746;2023-02-19T00:47:30;99650.22;;;12.91;45.05
11343;BME280;5726;42.160;24.746;2023-02-19T00:49:55;99647.22;;;12.92;45.13
11343;BME280;5726;42.160;24.746;2023-02-19T00:52:20;99651.78;;;12.79;45.79
11343;BME280;5726;42.160;24.746;2023-02-19T00:54:46;99644.13;;;12.72;45.85
11343;BME280;5726;42.160;24.746;2023-02-19T00:57:11;99642.41;;;12.76;46.03
11343;BME280;5726;42.160;24.746;2023-02-19T00:59:37;99641.34;;;12.90;45.52
11343;BME280;5726;42.160;24.746;2023-02-19T01:02:02;99637.31;;;12.75;45.78
11343;BME280;5726;42.160;24.746;2023-02-19T01:04:28;99648.22;;;12.96;45.31
11343;BME280;5726;42.160;24.746;2023-02-19T01:06:53;99642.22;;;13.13;45.04
11343;BME280;5726;42.160;24.746;2023-02-19T01:09:18;99638.22;;;13.10;45.02
11343;BME280;5726;42.160;24.746;2023-02-19T01:11:44;99633.31;;;13.39;44.15
11343;BME280;5726;42.160;24.746;2023-02-19T01:14:09;99633.63;;;13.24;44.36
11343;BME280;5726;42.160;24.746;2023-02-19T01:16:35;99629.88;;;12.98;45.34
11343;BME280;5726;42.160;24.746;2023-02-19T01:19:00;99629.38;;;13.10;45.07
11343;BME280;5726;42.160;24.746;2023-02-19T01:21:27;99626.25;;;13.16;44.94
11343;BME280;5726;42.160;24.746;2023-02-19T01:23:53;99640.44;;;13.08;45.17
11343;BME280;5726;42.160;24.746;2023-02-19T01:26:28;99630.47;;;12.95;45.31
11343;BME280;5726;42.160;24.746;2023-02-19T01:28:54;99638.94;;;13.02;45.13
11343;BME280;5726;42.160;24.746;2023-02-19T01:31:21;99642.53;;;13.11;44.66
11343;BME280;5726;42.160;24.746;2023-02-19T01:33:50;99642.94;;;13.05;45.17
11343;BME280;5726;42.160;24.746;2023-02-19T01:36:16;99638.31;;;13.19;44.56
11343;BME280;5726;42.160;24.746;2023-02-19T01:38:42;99633.03;;;13.27;44.38
11343;BME280;5726;42.160;24.746;2023-02-19T01:41:11;99633.44;;;13.07;44.90
11343;BME280;5726;42.160;24.746;2023-02-19T01:46:40;99625.06;;;13.09;44.71
11343;BME280;5726;42.160;24.746;2023-02-19T01:49:20;99629.06;;;12.71;46.30
11343;BME280;5726;42.160;24.746;2023-02-19T01:51:53;99628.38;;;12.92;45.68
11343;BME280;5726;42.160;24.746;2023-02-19T01:54:21;99617.13;;;12.90;45.22
11343;BME280;5726;42.160;24.746;2023-02-19T01:56:50;99623.28;;;12.78;45.90
11343;BME280;5726;42.160;24.746;2023-02-19T01:59:17;99623.56;;;12.76;46.16
11343;BME280;5726;42.160;24.746;2023-02-19T02:01:43;99623.09;;;12.74;46.18
11343;BME280;5726;42.160;24.746;2023-02-19T02:04:11;99623.19;;;12.69;46.16
11343;BME280;5726;42.160;24.746;2023-02-19T02:09:06;99632.88;;;12.84;45.81
11343;BME280;5726;42.160;24.746;2023-02-19T02:11:51;99626.28;;;12.89;45.57
11343;BME280;5726;42.160;24.746;2023-02-19T02:14:20;99632.47;;;13.03;45.11
11343;BME280;5726;42.160;24.746;2023-02-19T02:16:57;99628.56;;;13.23;44.58
11343;BME280;5726;42.160;24.746;2023-02-19T02:19:41;99625.06;;;13.09;44.74
11343;BME280;5726;42.160;24.746;2023-02-19T02:22:17;99631.06;;;12.92;45.19
11343;BME280;5726;42.160;24.746;2023-02-19T02:28:20;99628.66;;;13.04;45.04
11343;BME280;5726;42.160;24.746;2023-02-19T02:33:26;99646.53;;;13.00;45.44
11343;BME280;5726;42.160;24.746;2023-02-19T02:36:00;99652.56;;;13.19;44.83
11343;BME280;5726;42.160;24.746;2023-02-19T02:38:30;99642.81;;;13.23;44.54
11343;BME280;5726;42.160;24.746;2023-02-19T02:40:57;99650.19;;;13.18;44.83
11343;BME280;5726;42.160;24.746;2023-02-19T02:43:23;99647.22;;;12.92;45.54
11343;BME280;5726;42.160;24.746;2023-02-19T02:45:49;99650.00;;;12.74;45.93
11343;BME280;5726;42.160;24.746;2023-02-19T02:53:29;99640.63;;;12.72;46.10
11343;BME280;5726;42.160;24.746;2023-02-19T02:56:15;99650.69;;;12.53;46.54
11343;BME280;5726;42.160;24.746;2023-02-19T02:58:43;99665.53;;;12.64;46.38
11343;BME280;5726;42.160;24.746;2023-02-19T03:01:32;99663.63;;;12.64;46.13
11343;BME280;5726;42.160;24.746;2023-02-19T03:04:51;99660.91;;;12.51;46.53
11343;BME280;5726;42.160;24.746;2023-02-19T03:07:44;99666.31;;;12.64;46.33
11343;BME280;5726;42.160;24.746;2023-02-19T03:10:14;99665.16;;;12.25;47.36
11343;BME280;5726;42.160;24.746;2023-02-19T03:12:43;99649.25;;;11.97;47.97
11343;BME280;5726;42.160;24.746;2023-02-19T03:15:32;99651.97;;;12.10;47.91
11343;BME280;5726;42.160;24.746;2023-02-19T03:18:18;99654.03;;;12.00;47.88
11343;BME280;5726;42.160;24.746;2023-02-19T03:21:03;99665.25;;;12.20;47.40
11343;BME280;5726;42.160;24.746;2023-02-19T03:23:32;99672.16;;;12.08;47.55
11343;BME280;5726;42.160;24.746;2023-02-19T03:26:18;99673.38;;;12.15;47.66
11343;BME280;5726;42.160;24.746;2023-02-19T03:28:47;99659.16;;;12.15;47.80
11343;BME280;5726;42.160;24.746;2023-02-19T03:31:32;99655.28;;;12.21;47.40
11343;BME280;5726;42.160;24.746;2023-02-19T03:34:00;99655.50;;;12.24;47.26
11343;BME280;5726;42.160;24.746;2023-02-19T03:36:34;99654.34;;;12.43;46.54
11343;BME280;5726;42.160;24.746;2023-02-19T03:39:05;99665.22;;;12.52;46.05
11343;BME280;5726;42.160;24.746;2023-02-19T03:44:17;99680.66;;;12.73;45.69
11343;BME280;5726;42.160;24.746;2023-02-19T03:46:55;99669.00;;;12.78;45.57
11343;BME280;5726;42.160;24.746;2023-02-19T03:52:20;99676.50;;;12.81;45.26
11343;BME280;5726;42.160;24.746;2023-02-19T03:57:42;99676.19;;;12.69;45.57
11343;BME280;5726;42.160;24.746;2023-02-19T04:00:16;99673.91;;;12.76;45.46
11343;BME280;5726;42.160;24.746;2023-02-19T04:02:49;99669.41;;;12.71;45.45
11343;BME280;5726;42.160;24.746;2023-02-19T04:05:24;99678.44;;;12.93;44.74
11343;BME280;5726;42.160;24.746;2023-02-19T04:07:53;99698.47;;;13.01;44.70
11343;BME280;5726;42.160;24.746;2023-02-19T04:10:22;99688.28;;;13.11;44.37
11343;BME280;5726;42.160;24.746;2023-02-19T04:12:53;99693.56;;;13.16;44.44
11343;BME280;5726;42.160;24.746;2023-02-19T04:15:25;99709.81;;;13.38;43.88
11343;BME280;5726;42.160;24.746;2023-02-19T04:17:58;99709.63;;;13.35;44.30
11343;BME280;5726;42.160;24.746;2023-02-19T04:20:27;99718.16;;;13.50;43.65
11343;BME280;5726;42.160;24.746;2023-02-19T04:22:54;99719.50;;;13.39;43.78
11343;BME280;5726;42.160;24.746;2023-02-19T04:25:22;99723.56;;;13.50;43.31
11343;BME280;5726;42.160;24.746;2023-02-19T04:27:49;99730.31;;;13.61;43.12
11343;BME280;5726;42.160;24.746;2023-02-19T04:30:14;99735.72;;;13.34;43.53
11343;BME280;5726;42.160;24.746;2023-02-19T04:32:40;99745.91;;;13.37;43.34
11343;BME280;5726;42.160;24.746;2023-02-19T04:35:05;99734.44;;;13.45;43.41
11343;BME280;5726;42.160;24.746;2023-02-19T04:37:31;99729.66;;;13.29;43.95
11343;BME280;5726;42.160;24.746;2023-02-19T04:39:56;99747.91;;;13.45;43.29
11343;BME280;5726;42.160;24.746;2023-02-19T04:42:22;99748.41;;;13.47;43.22
11343;BME280;5726;42.160;24.746;2023-02-19T04:44:47;99746.59;;;13.56;43.23
11343;BME280;5726;42.160;24.746;2023-02-19T04:47:12;99744.50;;;13.53;43.12
11343;BME280;5726;42.160;24.746;2023-02-19T04:49:42;99753.78;;;13.47;43.26
11343;BME280;5726;42.160;24.746;2023-02-19T04:52:08;99746.63;;;13.29;43.63
11343;BME280;5726;42.160;24.746;2023-02-19T04:54:33;99750.50;;;13.37;43.69
11343;BME280;5726;42.160;24.746;2023-02-19T04:56:59;99765.28;;;13.39;43.32
11343;BME280;5726;42.160;24.746;2023-02-19T04:59:24;99770.84;;;13.29;43.99
11343;BME280;5726;42.160;24.746;2023-02-19T05:01:50;99763.84;;;13.28;43.82
11343;BME280;5726;42.160;24.746;2023-02-19T05:04:15;99769.66;;;13.35;43.67
11343;BME280;5726;42.160;24.746;2023-02-19T05:06:40;99773.06;;;13.27;43.76
11343;BME280;5726;42.160;24.746;2023-02-19T05:09:06;99768.66;;;13.18;43.95
11343;BME280;5726;42.160;24.746;2023-02-19T05:11:31;99753.91;;;13.15;44.19
11343;BME280;5726;42.160;24.746;2023-02-19T05:13:57;99749.00;;;13.17;44.19
11343;BME280;5726;42.160;24.746;2023-02-19T05:16:22;99754.50;;;13.12;44.08
11343;BME280;5726;42.160;24.746;2023-02-19T05:18:48;99754.28;;;13.22;43.90
11343;BME280;5726;42.160;24.746;2023-02-19T05:21:14;99760.69;;;13.26;43.85
11343;BME280;5726;42.160;24.746;2023-02-19T05:23:40;99753.31;;;13.18;43.71
11343;BME280;5726;42.160;24.746;2023-02-19T05:26:17;99756.31;;;13.30;43.71
11343;BME280;5726;42.160;24.746;2023-02-19T05:28:48;99743.81;;;13.34;43.26
11343;BME280;5726;42.160;24.746;2023-02-19T05:31:15;99748.09;;;13.48;43.13
11343;BME280;5726;42.160;24.746;2023-02-19T05:33:41;99759.47;;;13.59;42.98
11343;BME280;5726;42.160;24.746;2023-02-19T05:36:12;99763.16;;;13.63;42.75
11343;BME280;5726;42.160;24.746;2023-02-19T05:38:39;99767.13;;;13.52;43.02
11343;BME280;5726;42.160;24.746;2023-02-19T05:41:14;99773.13;;;13.49;43.06
11343;BME280;5726;42.160;24.746;2023-02-19T05:43:42;99777.63;;;13.53;42.94
11343;BME280;5726;42.160;24.746;2023-02-19T05:46:09;99780.56;;;13.79;42.80
11343;BME280;5726;42.160;24.746;2023-02-19T05:48:35;99777.19;;;13.86;42.57
11343;BME280;5726;42.160;24.746;2023-02-19T05:51:05;99768.97;;;13.91;41.98
11343;BME280;5726;42.160;24.746;2023-02-19T05:53:31;99780.03;;;14.03;41.88
11343;BME280;5726;42.160;24.746;2023-02-19T05:55:57;99791.66;;;14.26;41.65
11343;BME280;5726;42.160;24.746;2023-02-19T05:58:23;99783.09;;;14.24;41.24
11343;BME280;5726;42.160;24.746;2023-02-19T06:00:49;99787.09;;;14.48;41.33
11343;BME280;5726;42.160;24.746;2023-02-19T06:03:14;99793.34;;;14.57;40.82
11343;BME280;5726;42.160;24.746;2023-02-19T06:05:40;99795.41;;;14.82;40.71
11343;BME280;5726;42.160;24.746;2023-02-19T06:08:05;99800.06;;;14.89;40.40
11343;BME280;5726;42.160;24.746;2023-02-19T06:10:31;99804.81;;;15.14;39.52
11343;BME280;5726;42.160;24.746;2023-02-19T06:12:56;99815.75;;;15.48;39.13
11343;BME280;5726;42.160;24.746;2023-02-19T06:15:21;99818.22;;;15.75;38.73
11343;BME280;5726;42.160;24.746;2023-02-19T06:17:47;99826.25;;;15.96;37.59
11343;BME280;5726;42.160;24.746;2023-02-19T06:20:13;99824.00;;;15.90;38.02
11343;BME280;5726;42.160;24.746;2023-02-19T06:22:39;99828.81;;;16.10;37.74
11343;BME280;5726;42.160;24.746;2023-02-19T06:25:04;99829.16;;;16.25;37.81
11343;BME280;5726;42.160;24.746;2023-02-19T06:27:32;99829.50;;;16.57;36.98
11343;BME280;5726;42.160;24.746;2023-02-19T06:29:58;99825.66;;;16.58;36.22
11343;BME280;5726;42.160;24.746;2023-02-19T06:32:23;99828.53;;;16.78;35.87
11343;BME280;5726;42.160;24.746;2023-02-19T06:34:49;99839.16;;;16.92;35.61
11343;BME280;5726;42.160;24.746;2023-02-19T06:37:14;99839.50;;;16.99;35.45
11343;BME280;5726;42.160;24.746;2023-02-19T06:39:39;99834.41;;;16.97;35.20
11343;BME280;5726;42.160;24.746;2023-02-19T06:42:05;99841.56;;;17.02;35.18
11343;BME280;5726;42.160;24.746;2023-02-19T06:44:30;99840.59;;;17.06;35.19
11343;BME280;5726;42.160;24.746;2023-02-19T06:46:56;99841.34;;;17.32;35.65
11343;BME280;5726;42.160;24.746;2023-02-19T06:49:21;99850.81;;;17.55;34.33
11343;BME280;5726;42.160;24.746;2023-02-19T06:51:47;99846.22;;;17.47;34.20
11343;BME280;5726;42.160;24.746;2023-02-19T06:54:12;99843.16;;;17.57;34.12
11343;BME280;5726;42.160;24.746;2023-02-19T06:56:39;99842.63;;;17.26;34.69
11343;BME280;5726;42.160;24.746;2023-02-19T06:59:10;99852.34;;;17.10;34.94
11343;BME280;5726;42.160;24.746;2023-02-19T07:01:37;99855.38;;;17.09;34.98
11343;BME280;5726;42.160;24.746;2023-02-19T07:04:03;99856.97;;;17.18;35.07
11343;BME280;5726;42.160;24.746;2023-02-19T07:06:29;99855.38;;;17.09;35.32
11343;BME280;5726;42.160;24.746;2023-02-19T07:08:56;99851.44;;;16.98;36.13
11343;BME280;5726;42.160;24.746;2023-02-19T07:11:22;99853.34;;;16.80;35.93
11343;BME280;5726;42.160;24.746;2023-02-19T07:14:02;99851.44;;;16.89;35.96
11343;BME280;5726;42.160;24.746;2023-02-19T07:16:28;99851.94;;;16.91;36.49
11343;BME280;5726;42.160;24.746;2023-02-19T07:18:58;99861.25;;;17.19;36.18
11343;BME280;5726;42.160;24.746;2023-02-19T07:21:24;99846.31;;;17.05;35.59
11343;BME280;5726;42.160;24.746;2023-02-19T07:23:51;99859.69;;;17.10;35.89
11343;BME280;5726;42.160;24.746;2023-02-19T07:26:18;99862.09;;;17.11;37.37
11343;BME280;5726;42.160;24.746;2023-02-19T07:28:44;99853.25;;;17.48;35.80
11343;BME280;5726;42.160;24.746;2023-02-19T07:31:11;99856.06;;;17.60;35.09
11343;BME280;5726;42.160;24.746;2023-02-19T07:33:36;99847.84;;;17.76;34.96
11343;BME280;5726;42.160;24.746;2023-02-19T07:36:02;99850.56;;;17.76;35.03
11343;BME280;5726;42.160;24.746;2023-02-19T07:38:28;99850.44;;;17.65;35.16
11343;BME280;5726;42.160;24.746;2023-02-19T07:40:55;99845.88;;;17.57;35.00
11343;BME280;5726;42.160;24.746;2023-02-19T07:43:21;99849.69;;;17.56;35.11
11343;BME280;5726;42.160;24.746;2023-02-19T07:45:47;99843.06;;;17.45;35.58
11343;BME280;5726;42.160;24.746;2023-02-19T07:48:12;99842.28;;;17.36;36.13
11343;BME280;5726;42.160;24.746;2023-02-19T07:50:38;99851.19;;;17.45;35.80
11343;BME280;5726;42.160;24.746;2023-02-19T07:53:03;99845.47;;;17.38;36.13
11343;BME280;5726;42.160;24.746;2023-02-19T07:55:31;99852.16;;;17.32;36.45
11343;BME280;5726;42.160;24.746;2023-02-19T07:57:57;99853.34;;;17.60;36.00
11343;BME280;5726;42.160;24.746;2023-02-19T08:00:23;99854.47;;;17.87;35.25
11343;BME280;5726;42.160;24.746;2023-02-19T08:02:50;99847.75;;;17.65;36.14
11343;BME280;5726;42.160;24.746;2023-02-19T08:05:30;99857.25;;;17.79;35.35
11343;BME280;5726;42.160;24.746;2023-02-19T08:07:56;99847.00;;;17.84;35.48
11343;BME280;5726;42.160;24.746;2023-02-19T08:10:23;99842.13;;;17.70;35.57
11343;BME280;5726;42.160;24.746;2023-02-19T08:13:12;99847.19;;;17.79;35.60
11343;BME280;5726;42.160;24.746;2023-02-19T08:15:45;99851.00;;;17.78;35.80
11343;BME280;5726;42.160;24.746;2023-02-19T08:18:12;99846.81;;;17.89;35.34
11343;BME280;5726;42.160;24.746;2023-02-19T08:20:38;99838.25;;;17.79;35.70
11343;BME280;5726;42.160;24.746;2023-02-19T08:23:04;99840.44;;;17.85;35.39
11343;BME280;5726;42.160;24.746;2023-02-19T08:25:30;99833.16;;;17.77;36.26
11343;BME280;5726;42.160;24.746;2023-02-19T08:27:55;99830.25;;;17.82;36.54
11343;BME280;5726;42.160;24.746;2023-02-19T08:30:22;99826.31;;;18.00;36.04
11343;BME280;5726;42.160;24.746;2023-02-19T08:32:48;99829.22;;;18.24;35.26
11343;BME280;5726;42.160;24.746;2023-02-19T08:35:13;99827.97;;;18.42;35.09
11343;BME280;5726;42.160;24.746;2023-02-19T08:37:38;99827.63;;;18.64;34.82
11343;BME280;5726;42.160;24.746;2023-02-19T08:40:04;99809.22;;;18.81;34.85
11343;BME280;5726;42.160;24.746;2023-02-19T08:42:30;99813.91;;;18.92;34.22
11343;BME280;5726;42.160;24.746;2023-02-19T08:44:55;99821.72;;;19.14;33.95
11343;BME280;5726;42.160;24.746;2023-02-19T08:47:21;99813.13;;;19.36;33.39
11343;BME280;5726;42.160;24.746;2023-02-19T08:49:46;99814.94;;;19.32;33.97
11343;BME280;5726;42.160;24.746;2023-02-19T08:52:11;99799.66;;;19.27;34.08
11343;BME280;5726;42.160;24.746;2023-02-19T08:54:37;99811.66;;;19.26;34.17
11343;BME280;5726;42.160;24.746;2023-02-19T08:57:02;99803.41;;;19.35;34.27
11343;BME280;5726;42.160;24.746;2023-02-19T08:59:29;99805.88;;;19.40;34.05
11343;BME280;5726;42.160;24.746;2023-02-19T09:01:57;99795.69;;;19.61;34.03
11343;BME280;5726;42.160;24.746;2023-02-19T09:04:22;99803.19;;;19.75;33.40
11343;BME280;5726;42.160;24.746;2023-02-19T09:06:48;99790.84;;;19.90;34.24
11343;BME280;5726;42.160;24.746;2023-02-19T09:09:13;99793.16;;;20.27;34.50
11343;BME280;5726;42.160;24.746;2023-02-19T09:11:38;99792.44;;;20.30;33.82
11343;BME280;5726;42.160;24.746;2023-02-19T09:14:04;99786.38;;;20.21;34.32
11343;BME280;5726;42.160;24.746;2023-02-19T09:16:32;99786.00;;;20.22;33.58
11343;BME280;5726;42.160;24.746;2023-02-19T09:18:58;99780.06;;;20.32;34.22
11343;BME280;5726;42.160;24.746;2023-02-19T09:21:23;99767.03;;;20.26;33.31
11343;BME280;5726;42.160;24.746;2023-02-19T09:23:49;99767.53;;;20.16;33.41
11343;BME280;5726;42.160;24.746;2023-02-19T09:26:14;99760.56;;;20.30;33.30
11343;BME280;5726;42.160;24.746;2023-02-19T09:28:40;99737.97;;;20.30;33.32
11343;BME280;5726;42.160;24.746;2023-02-19T09:31:08;99762.94;;;20.86;32.79
11343;BME280;5726;42.160;24.746;2023-02-19T09:33:33;99755.91;;;20.85;32.08
11343;BME280;5726;42.160;24.746;2023-02-19T09:35:59;99752.56;;;20.76;32.01
11343;BME280;5726;42.160;24.746;2023-02-19T09:38:25;99754.53;;;20.91;32.16
11343;BME280;5726;42.160;24.746;2023-02-19T09:40:51;99748.28;;;21.06;31.88
11343;BME280;5726;42.160;24.746;2023-02-19T09:43:21;99739.56;;;21.16;31.63
11343;BME280;5726;42.160;24.746;2023-02-19T09:45:48;99735.88;;;21.09;31.89
11343;BME280;5726;42.160;24.746;2023-02-19T09:48:22;99724.69;;;20.83;31.93
11343;BME280;5726;42.160;24.746;2023-02-19T09:50:47;99737.19;;;20.99;31.48
11343;BME280;5726;42.160;24.746;2023-02-19T09:53:21;99730.94;;;21.29;31.45
11343;BME280;5726;42.160;24.746;2023-02-19T09:55:48;99721.09;;;21.56;31.44
11343;BME280;5726;42.160;24.746;2023-02-19T10:00:48;99713.59;;;21.22;31.89
11343;BME280;5726;42.160;24.746;2023-02-19T10:03:24;99706.47;;;21.17;31.91
11343;BME280;5726;42.160;24.746;2023-02-19T10:05:56;99698.56;;;21.28;31.83
11343;BME280;5726;42.160;24.746;2023-02-19T10:08:21;99697.13;;;21.34;31.69
11343;BME280;5726;42.160;24.746;2023-02-19T10:10:47;99697.59;;;21.36;31.31
11343;BME280;5726;42.160;24.746;2023-02-19T10:16:11;99696.72;;;21.47;31.31
11343;BME280;5726;42.160;24.746;2023-02-19T10:18:42;99695.72;;;21.40;30.65
11343;BME280;5726;42.160;24.746;2023-02-19T10:21:16;99688.44;;;21.28;32.26
11343;BME280;5726;42.160;24.746;2023-02-19T10:23:44;99691.94;;;21.60;31.71
11343;BME280;5726;42.160;24.746;2023-02-19T10:26:11;99696.56;;;21.74;30.59
11343;BME280;5726;42.160;24.746;2023-02-19T10:28:36;99688.00;;;21.42;31.18
11343;BME280;5726;42.160;24.746;2023-02-19T10:31:06;99667.81;;;21.61;31.53
11343;BME280;5726;42.160;24.746;2023-02-19T10:33:54;99688.16;;;21.49;32.52
11343;BME280;5726;42.160;24.746;2023-02-19T10:36:32;99672.13;;;21.81;31.41
11343;BME280;5726;42.160;24.746;2023-02-19T10:39:01;99660.44;;;21.81;31.10
11343;BME280;5726;42.160;24.746;2023-02-19T10:41:28;99661.34;;;21.20;32.89
11343;BME280;5726;42.160;24.746;2023-02-19T10:44:10;99658.59;;;21.35;33.04
11343;BME280;5726;42.160;24.746;2023-02-19T10:46:47;99646.91;;;21.35;33.07
11343;BME280;5726;42.160;24.746;2023-02-19T10:49:32;99642.50;;;21.46;31.61
11343;BME280;5726;42.160;24.746;2023-02-19T10:52:46;99638.19;;;21.45;30.79
11343;BME280;5726;42.160;24.746;2023-02-19T10:55:13;99638.28;;;21.48;31.54
11343;BME280;5726;42.160;24.746;2023-02-19T10:57:39;99628.94;;;21.34;31.29
11343;BME280;5726;42.160;24.746;2023-02-19T11:02:39;99621.72;;;21.57;31.32
11343;BME280;5726;42.160;24.746;2023-02-19T11:12:51;99612.22;;;21.69;30.56
11343;BME280;5726;42.160;24.746;2023-02-19T11:15:26;99606.31;;;22.05;29.38
11343;BME280;5726;42.160;24.746;2023-02-19T11:20:21;99600.03;;;21.82;30.07
11343;BME280;5726;42.160;24.746;2023-02-19T11:22:47;99607.91;;;21.87;29.73
11343;BME280;5726;42.160;24.746;2023-02-19T11:28:03;99597.13;;;21.94;29.41
11343;BME280;5726;42.160;24.746;2023-02-19T11:30:46;99584.84;;;22.04;28.94
11343;BME280;5726;42.160;24.746;2023-02-19T11:35:40;99584.06;;;22.03;29.61
11343;BME280;5726;42.160;24.746;2023-02-19T11:38:08;99580.28;;;22.11;28.99
11343;BME280;5726;42.160;24.746;2023-02-19T11:49:18;99566.63;;;22.30;28.75
11343;BME280;5726;42.160;24.746;2023-02-19T11:54:46;99545.44;;;22.23;28.69
11343;BME280;5726;42.160;24.746;2023-02-19T12:00:27;99541.72;;;22.57;28.36
11343;BME280;5726;42.160;24.746;2023-02-19T12:11:02;99530.59;;;22.69;28.08
11343;BME280;5726;42.160;24.746;2023-02-19T12:26:30;99503.94;;;22.62;28.32
11343;BME280;5726;42.160;24.746;2023-02-19T12:35:09;99490.59;;;23.09;28.14
11343;BME280;5726;42.160;24.746;2023-02-19T12:43:22;99469.63;;;22.65;28.81
11343;BME280;5726;42.160;24.746;2023-02-19T12:45:55;99467.88;;;23.05;28.32
11343;BME280;5726;42.160;24.746;2023-02-19T12:51:25;99465.19;;;22.83;28.72
11343;BME280;5726;42.160;24.746;2023-02-19T12:56:54;99453.78;;;23.03;28.03
11343;BME280;5726;42.160;24.746;2023-02-19T13:02:23;99445.44;;;23.22;27.24
11343;BME280;5726;42.160;24.746;2023-02-19T13:07:29;99426.91;;;22.83;27.92
11343;BME280;5726;42.160;24.746;2023-02-19T13:10:02;99431.13;;;23.03;27.86
11343;BME280;5726;42.160;24.746;2023-02-19T13:12:33;99428.09;;;23.11;27.65
11343;BME280;5726;42.160;24.746;2023-02-19T13:15:16;99431.06;;;22.99;27.70
11343;BME280;5726;42.160;24.746;2023-02-19T13:17:45;99421.94;;;23.21;28.31
11343;BME280;5726;42.160;24.746;2023-02-19T13:20:32;99410.44;;;23.38;27.72
11343;BME280;5726;42.160;24.746;2023-02-19T13:23:15;99411.44;;;23.23;28.39
11343;BME280;5726;42.160;24.746;2023-02-19T13:37:05;99391.69;;;23.40;27.54
11343;BME280;5726;42.160;24.746;2023-02-19T13:39:32;99383.56;;;23.47;27.46
11343;BME280;5726;42.160;24.746;2023-02-19T13:41:58;99380.38;;;23.41;28.28
11343;BME280;5726;42.160;24.746;2023-02-19T13:44:26;99378.38;;;23.38;28.42
11343;BME280;5726;42.160;24.746;2023-02-19T13:46:52;99372.88;;;23.35;28.29
11343;BME280;5726;42.160;24.746;2023-02-19T13:49:39;99371.88;;;23.53;27.39
11343;BME280;5726;42.160;24.746;2023-02-19T14:01:09;99355.34;;;23.43;26.96
11343;BME280;5726;42.160;24.746;2023-02-19T14:06:08;99352.75;;;23.17;27.09
11343;BME280;5726;42.160;24.746;2023-02-19T14:11:11;99341.97;;;22.98;27.49
11343;BME280;5726;42.160;24.746;2023-02-19T14:18:59;99325.03;;;23.22;27.48
11343;BME280;5726;42.160;24.746;2023-02-19T14:21:35;99325.94;;;23.33;27.93
11343;BME280;5726;42.160;24.746;2023-02-19T14:24:01;99320.50;;;23.36;27.15
11343;BME280;5726;42.160;24.746;2023-02-19T14:26:30;99326.69;;;23.30;27.09
11343;BME280;5726;42.160;24.746;2023-02-19T14:28:57;99321.47;;;23.18;27.70
11343;BME280;5726;42.160;24.746;2023-02-19T14:31:31;99325.44;;;23.24;27.56
11343;BME280;5726;42.160;24.746;2023-02-19T14:34:02;99318.25;;;23.09;27.44
11343;BME280;5726;42.160;24.746;2023-02-19T14:36:37;99305.59;;;23.30;28.75
11343;BME280;5726;42.160;24.746;2023-02-19T14:39:11;99319.97;;;23.63;26.99
11343;BME280;5726;42.160;24.746;2023-02-19T14:41:41;99311.16;;;23.05;28.59
11343;BME280;5726;42.160;24.746;2023-02-19T14:44:20;99306.25;;;23.17;28.29
11343;BME280;5726;42.160;24.746;2023-02-19T14:46:55;99299.94;;;23.13;28.88
11343;BME280;5726;42.160;24.746;2023-02-19T14:52:33;99293.31;;;23.14;27.27
11343;BME280;5726;42.160;24.746;2023-02-19T14:55:06;99294.47;;;23.13;26.86
11343;BME280;5726;42.160;24.746;2023-02-19T14:57:38;99285.97;;;23.25;27.66
11343;BME280;5726;42.160;24.746;2023-02-19T15:02:53;99282.59;;;22.99;27.84
11343;BME280;5726;42.160;24.746;2023-02-19T15:05:25;99277.03;;;22.92;27.36
11343;BME280;5726;42.160;24.746;2023-02-19T15:07:58;99275.25;;;23.06;27.08
11343;BME280;5726;42.160;24.746;2023-02-19T15:10:29;99273.19;;;22.96;27.15
11343;BME280;5726;42.160;24.746;2023-02-19T15:13:01;99271.34;;;22.74;27.21
11343;BME280;5726;42.160;24.746;2023-02-19T15:15:31;99269.88;;;22.84;27.04
11343;BME280;5726;42.160;24.746;2023-02-19T15:17:59;99273.06;;;22.86;26.95
11343;BME280;5726;42.160;24.746;2023-02-19T15:20:27;99271.81;;;22.80;27.05
11343;BME280;5726;42.160;24.746;2023-02-19T15:22:54;99266.53;;;22.64;27.77
11343;BME280;5726;42.160;24.746;2023-02-19T15:25:22;99268.44;;;22.28;27.89
11343;BME280;5726;42.160;24.746;2023-02-19T15:27:49;99267.59;;;22.24;27.92
11343;BME280;5726;42.160;24.746;2023-02-19T15:30:26;99268.34;;;22.21;28.39
11343;BME280;5726;42.160;24.746;2023-02-19T15:32:57;99268.34;;;21.95;28.49
11343;BME280;5726;42.160;24.746;2023-02-19T15:35:24;99267.31;;;22.07;28.37